sensor_id;sensor_type;location;lat;lon;timestamp;temperature;humidity
19340;HTU21D;9804;52.350;6.684;2023-02-03T00:01:34;10.82;-6.00
19340;HTU21D;9804;52.350;6.684;2023-02-03T00:03:59;10.75;-6.00
19340;HTU21D;9804;52.350;6.684;2023-02-03T00:06:24;10.83;-6.00
19340;HTU21D;9804;52.350;6.684;2023-02-03T00:08:54;10.79;-6.00
19340;HTU21D;9804;52.350;6.684;2023-02-03T00:11:21;10.75;-6.00
19340;HTU21D;9804;52.350;6.684;2023-02-03T00:13:46;10.99;-6.00
19340;HTU21D;9804;52.350;6.684;2023-02-03T00:16:12;10.97;-6.00
19340;HTU21D;9804;52.350;6.684;2023-02-03T00:18:37;10.72;-6.00
19340;HTU21D;9804;52.350;6.684;2023-02-03T00:21:03;10.80;-6.00
19340;HTU21D;9804;52.350;6.684;2023-02-03T00:23:29;10.84;-6.00
19340;HTU21D;9804;52.350;6.684;2023-02-03T00:25:56;10.83;-6.00
19340;HTU21D;9804;52.350;6.684;2023-02-03T00:28:22;10.64;-6.00
19340;HTU21D;9804;52.350;6.684;2023-02-03T00:30:48;10.79;-6.00
19340;HTU21D;9804;52.350;6.684;2023-02-03T00:33:13;10.75;-6.00
19340;HTU21D;9804;52.350;6.684;2023-02-03T00:35:39;10.87;-6.00
19340;HTU21D;9804;52.350;6.684;2023-02-03T00:38:05;10.79;-6.00
19340;HTU21D;9804;52.350;6.684;2023-02-03T00:40:30;11.00;-6.00
19340;HTU21D;9804;52.350;6.684;2023-02-03T00:42:56;10.92;-6.00
19340;HTU21D;9804;52.350;6.684;2023-02-03T00:45:21;10.93;-6.00
19340;HTU21D;9804;52.350;6.684;2023-02-03T00:47:47;11.00;-6.00
19340;HTU21D;9804;52.350;6.684;2023-02-03T00:50:12;10.81;-6.00
19340;HTU21D;9804;52.350;6.684;2023-02-03T00:52:38;10.87;-6.00
19340;HTU21D;9804;52.350;6.684;2023-02-03T00:55:04;10.85;-6.00
19340;HTU21D;9804;52.350;6.684;2023-02-03T00:57:30;11.01;-6.00
19340;HTU21D;9804;52.350;6.684;2023-02-03T00:59:55;11.05;-6.00
19340;HTU21D;9804;52.350;6.684;2023-02-03T01:02:22;11.05;-6.00
19340;HTU21D;9804;52.350;6.684;2023-02-03T01:04:47;11.25;-6.00
19340;HTU21D;9804;52.350;6.684;2023-02-03T01:07:13;11.08;-6.00
19340;HTU21D;9804;52.350;6.684;2023-02-03T01:09:38;10.98;-6.00
19340;HTU21D;9804;52.350;6.684;2023-02-03T01:12:04;11.05;-6.00
19340;HTU21D;9804;52.350;6.684;2023-02-03T01:14:30;11.07;-6.00
19340;HTU21D;9804;52.350;6.684;2023-02-03T01:16:56;10.97;-6.00
19340;HTU21D;9804;52.350;6.684;2023-02-03T01:19:21;10.95;-6.00
19340;HTU21D;9804;52.350;6.684;2023-02-03T01:21:47;11.08;-6.00
19340;HTU21D;9804;52.350;6.684;2023-02-03T01:24:12;11.15;-6.00
19340;HTU21D;9804;52.350;6.684;2023-02-03T01:26:39;11.04;-6.00
19340;HTU21D;9804;52.350;6.684;2023-02-03T01:29:05;11.12;-6.00
19340;HTU21D;9804;52.350;6.684;2023-02-03T01:31:33;11.08;-6.00
19340;HTU21D;9804;52.350;6.684;2023-02-03T01:34:01;11.05;-6.00
19340;HTU21D;9804;52.350;6.684;2023-02-03T01:36:28;11.14;-6.00
19340;HTU21D;9804;52.350;6.684;2023-02-03T01:38:54;11.02;-6.00
19340;HTU21D;9804;52.350;6.684;2023-02-03T01:41:22;11.09;-6.00
19340;HTU21D;9804;52.350;6.684;2023-02-03T01:43:53;10.98;-6.00
19340;HTU21D;9804;52.350;6.684;2023-02-03T01:49:24;11.09;-6.00
19340;HTU21D;9804;52.350;6.684;2023-02-03T01:51:51;11.14;-6.00
19340;HTU21D;9804;52.350;6.684;2023-02-03T01:54:27;11.00;-6.00
19340;HTU21D;9804;52.350;6.684;2023-02-03T01:57:26;11.08;-6.00
19340;HTU21D;9804;52.350;6.684;2023-02-03T01:59:54;11.12;-6.00
19340;HTU21D;9804;52.350;6.684;2023-02-03T02:02:21;11.00;-6.00
19340;HTU21D;9804;52.350;6.684;2023-02-03T02:07:23;11.13;-6.00
19340;HTU21D;9804;52.350;6.684;2023-02-03T02:09:49;10.98;-6.00
19340;HTU21D;9804;52.350;6.684;2023-02-03T02:12:15;11.04;-6.00
19340;HTU21D;9804;52.350;6.684;2023-02-03T02:14:41;11.04;-6.00
19340;HTU21D;9804;52.350;6.684;2023-02-03T02:23:07;11.09;-6.00
19340;HTU21D;9804;52.350;6.684;2023-02-03T02:37:30;10.86;-6.00
19340;HTU21D;9804;52.350;6.684;2023-02-03T02:40:42;11.05;-6.00
19340;HTU21D;9804;52.350;6.684;2023-02-03T02:45:53;11.00;-6.00
19340;HTU21D;9804;52.350;6.684;2023-02-03T02:48:29;11.04;-6.00
19340;HTU21D;9804;52.350;6.684;2023-02-03T02:50:57;10.99;-6.00
19340;HTU21D;9804;52.350;6.684;2023-02-03T02:53:27;11.08;-6.00
19340;HTU21D;9804;52.350;6.684;2023-02-03T02:55:54;10.85;-6.00
19340;HTU21D;9804;52.350;6.684;2023-02-03T02:58:22;10.94;-6.00
19340;HTU21D;9804;52.350;6.684;2023-02-03T03:00:48;11.02;-6.00
19340;HTU21D;9804;52.350;6.684;2023-02-03T03:03:19;11.12;-6.00
19340;HTU21D;9804;52.350;6.684;2023-02-03T03:05:58;10.99;-6.00
19340;HTU21D;9804;52.350;6.684;2023-02-03T03:08:33;11.03;-6.00
19340;HTU21D;9804;52.350;6.684;2023-02-03T03:11:00;11.02;-6.00
19340;HTU21D;9804;52.350;6.684;2023-02-03T03:13:31;11.05;-6.00
19340;HTU21D;9804;52.350;6.684;2023-02-03T03:16:00;11.05;-6.00
19340;HTU21D;9804;52.350;6.684;2023-02-03T03:18:30;11.04;-6.00
19340;HTU21D;9804;52.350;6.684;2023-02-03T03:21:00;10.93;-6.00
19340;HTU21D;9804;52.350;6.684;2023-02-03T03:23:41;11.22;-6.00
19340;HTU21D;9804;52.350;6.684;2023-02-03T03:28:48;11.12;-6.00
19340;HTU21D;9804;52.350;6.684;2023-02-03T03:31:16;11.24;-6.00
19340;HTU21D;9804;52.350;6.684;2023-02-03T03:33:43;11.11;-6.00
19340;HTU21D;9804;52.350;6.684;2023-02-03T03:36:17;11.20;-6.00
19340;HTU21D;9804;52.350;6.684;2023-02-03T03:41:48;11.08;-6.00
19340;HTU21D;9804;52.350;6.684;2023-02-03T03:44:20;11.25;-6.00
19340;HTU21D;9804;52.350;6.684;2023-02-03T03:47:02;11.05;-6.00
19340;HTU21D;9804;52.350;6.684;2023-02-03T03:49:32;11.09;-6.00
19340;HTU21D;9804;52.350;6.684;2023-02-03T03:52:02;11.01;-6.00
19340;HTU21D;9804;52.350;6.684;2023-02-03T03:54:29;11.17;-6.00
19340;HTU21D;9804;52.350;6.684;2023-02-03T03:57:06;11.05;-6.00
19340;HTU21D;9804;52.350;6.684;2023-02-03T03:59:37;11.17;-6.00
19340;HTU21D;9804;52.350;6.684;2023-02-03T04:02:03;11.16;-6.00
19340;HTU21D;9804;52.350;6.684;2023-02-03T04:04:31;11.23;-6.00
19340;HTU21D;9804;52.350;6.684;2023-02-03T04:06:57;11.13;-6.00
19340;HTU21D;9804;52.350;6.684;2023-02-03T04:09:22;11.14;-6.00
19340;HTU21D;9804;52.350;6.684;2023-02-03T04:11:48;11.29;-6.00
19340;HTU21D;9804;52.350;6.684;2023-02-03T04:14:26;11.23;-6.00
19340;HTU21D;9804;52.350;6.684;2023-02-03T04:16:52;11.20;-6.00
19340;HTU21D;9804;52.350;6.684;2023-02-03T04:19:17;11.18;-6.00
19340;HTU21D;9804;52.350;6.684;2023-02-03T04:21:43;11.14;-6.00
19340;HTU21D;9804;52.350;6.684;2023-02-03T04:24:08;11.10;-6.00
19340;HTU21D;9804;52.350;6.684;2023-02-03T04:26:33;11.24;-6.00
19340;HTU21D;9804;52.350;6.684;2023-02-03T04:28:59;11.31;-6.00
19340;HTU21D;9804;52.350;6.684;2023-02-03T04:31:24;11.05;-6.00
19340;HTU21D;9804;52.350;6.684;2023-02-03T04:33:50;11.04;-6.00
19340;HTU21D;9804;52.350;6.684;2023-02-03T04:36:15;11.23;-6.00
19340;HTU21D;9804;52.350;6.684;2023-02-03T04:38:40;11.38;-6.00
19340;HTU21D;9804;52.350;6.684;2023-02-03T04:41:06;11.15;-6.00
19340;HTU21D;9804;52.350;6.684;2023-02-03T04:43:31;11.24;-6.00
19340;HTU21D;9804;52.350;6.684;2023-02-03T04:45:58;11.27;-6.00
19340;HTU21D;9804;52.350;6.684;2023-02-03T04:48:24;11.26;-6.00
19340;HTU21D;9804;52.350;6.684;2023-02-03T04:50:50;11.43;-6.00
19340;HTU21D;9804;52.350;6.684;2023-02-03T04:53:15;11.27;-6.00
19340;HTU21D;9804;52.350;6.684;2023-02-03T04:55:40;11.37;-6.00
19340;HTU21D;9804;52.350;6.684;2023-02-03T04:58:06;11.37;-6.00
19340;HTU21D;9804;52.350;6.684;2023-02-03T05:00:31;11.34;-6.00
19340;HTU21D;9804;52.350;6.684;2023-02-03T05:02:56;11.38;-6.00
19340;HTU21D;9804;52.350;6.684;2023-02-03T05:05:22;11.39;-6.00
19340;HTU21D;9804;52.350;6.684;2023-02-03T05:07:47;11.57;-6.00
19340;HTU21D;9804;52.350;6.684;2023-02-03T05:10:13;11.43;-6.00
19340;HTU21D;9804;52.350;6.684;2023-02-03T05:12:38;11.37;-6.00
19340;HTU21D;9804;52.350;6.684;2023-02-03T05:15:04;11.34;-6.00
19340;HTU21D;9804;52.350;6.684;2023-02-03T05:17:29;11.43;-6.00
19340;HTU21D;9804;52.350;6.684;2023-02-03T05:19:55;11.46;-6.00
19340;HTU21D;9804;52.350;6.684;2023-02-03T05:22:20;11.48;-6.00
19340;HTU21D;9804;52.350;6.684;2023-02-03T05:24:46;11.51;-6.00
19340;HTU21D;9804;52.350;6.684;2023-02-03T05:27:11;11.52;-6.00
19340;HTU21D;9804;52.350;6.684;2023-02-03T05:29:36;11.42;-6.00
19340;HTU21D;9804;52.350;6.684;2023-02-03T05:32:02;11.58;-6.00
19340;HTU21D;9804;52.350;6.684;2023-02-03T05:34:27;11.49;-6.00
19340;HTU21D;9804;52.350;6.684;2023-02-03T05:36:52;11.58;-6.00
19340;HTU21D;9804;52.350;6.684;2023-02-03T05:39:18;11.56;-6.00
19340;HTU21D;9804;52.350;6.684;2023-02-03T05:41:43;11.51;-6.00
19340;HTU21D;9804;52.350;6.684;2023-02-03T05:44:22;11.73;-6.00
19340;HTU21D;9804;52.350;6.684;2023-02-03T05:46:48;11.57;-6.00
19340;HTU21D;9804;52.350;6.684;2023-02-03T05:49:13;11.62;-6.00
19340;HTU21D;9804;52.350;6.684;2023-02-03T05:51:39;11.67;-6.00
19340;HTU21D;9804;52.350;6.684;2023-02-03T05:54:05;11.67;-6.00
19340;HTU21D;9804;52.350;6.684;2023-02-03T05:56:31;11.69;-6.00
19340;HTU21D;9804;52.350;6.684;2023-02-03T05:58:56;11.72;-6.00
19340;HTU21D;9804;52.350;6.684;2023-02-03T06:01:21;11.62;-6.00
19340;HTU21D;9804;52.350;6.684;2023-02-03T06:03:47;11.81;-6.00
19340;HTU21D;9804;52.350;6.684;2023-02-03T06:06:12;11.60;-6.00
19340;HTU21D;9804;52.350;6.684;2023-02-03T06:08:38;11.68;-6.00
19340;HTU21D;9804;52.350;6.684;2023-02-03T06:11:03;11.69;-6.00
19340;HTU21D;9804;52.350;6.684;2023-02-03T06:13:29;11.67;-6.00
19340;HTU21D;9804;52.350;6.684;2023-02-03T06:15:54;11.67;-6.00
19340;HTU21D;9804;52.350;6.684;2023-02-03T06:18:20;11.70;-6.00
19340;HTU21D;9804;52.350;6.684;2023-02-03T06:20:49;11.74;-6.00
19340;HTU21D;9804;52.350;6.684;2023-02-03T06:23:14;11.85;-6.00
19340;HTU21D;9804;52.350;6.684;2023-02-03T06:25:41;11.72;-6.00
19340;HTU21D;9804;52.350;6.684;2023-02-03T06:28:07;11.90;-6.00
19340;HTU21D;9804;52.350;6.684;2023-02-03T06:30:32;11.73;-6.00
19340;HTU21D;9804;52.350;6.684;2023-02-03T06:32:58;11.71;-6.00
19340;HTU21D;9804;52.350;6.684;2023-02-03T06:35:23;11.84;-6.00
19340;HTU21D;9804;52.350;6.684;2023-02-03T06:37:48;11.75;-6.00
19340;HTU21D;9804;52.350;6.684;2023-02-03T06:40:14;11.81;-6.00
19340;HTU21D;9804;52.350;6.684;2023-02-03T06:42:39;11.76;-6.00
19340;HTU21D;9804;52.350;6.684;2023-02-03T06:45:05;11.86;-6.00
19340;HTU21D;9804;52.350;6.684;2023-02-03T06:47:30;11.79;-6.00
19340;HTU21D;9804;52.350;6.684;2023-02-03T06:49:56;11.87;-6.00
19340;HTU21D;9804;52.350;6.684;2023-02-03T06:52:21;11.83;-6.00
19340;HTU21D;9804;52.350;6.684;2023-02-03T06:54:46;11.75;-6.00
19340;HTU21D;9804;52.350;6.684;2023-02-03T06:57:12;11.85;-6.00
19340;HTU21D;9804;52.350;6.684;2023-02-03T06:59:37;11.90;-6.00
19340;HTU21D;9804;52.350;6.684;2023-02-03T07:02:03;11.79;-6.00
19340;HTU21D;9804;52.350;6.684;2023-02-03T07:04:28;11.91;-6.00
19340;HTU21D;9804;52.350;6.684;2023-02-03T07:06:55;11.69;-6.00
19340;HTU21D;9804;52.350;6.684;2023-02-03T07:09:21;11.86;-6.00
19340;HTU21D;9804;52.350;6.684;2023-02-03T07:11:47;11.88;-6.00
19340;HTU21D;9804;52.350;6.684;2023-02-03T07:14:12;11.84;-6.00
19340;HTU21D;9804;52.350;6.684;2023-02-03T07:16:37;12.03;-6.00
19340;HTU21D;9804;52.350;6.684;2023-02-03T07:19:03;11.72;-6.00
19340;HTU21D;9804;52.350;6.684;2023-02-03T07:21:29;11.78;-6.00
19340;HTU21D;9804;52.350;6.684;2023-02-03T07:23:54;11.77;-6.00
19340;HTU21D;9804;52.350;6.684;2023-02-03T07:26:20;11.73;-6.00
19340;HTU21D;9804;52.350;6.684;2023-02-03T07:28:47;11.88;-6.00
19340;HTU21D;9804;52.350;6.684;2023-02-03T07:31:13;11.75;-6.00
19340;HTU21D;9804;52.350;6.684;2023-02-03T07:33:38;11.81;-6.00
19340;HTU21D;9804;52.350;6.684;2023-02-03T07:36:05;11.77;-6.00
19340;HTU21D;9804;52.350;6.684;2023-02-03T07:38:31;11.86;-6.00
19340;HTU21D;9804;52.350;6.684;2023-02-03T07:40:56;11.81;-6.00
19340;HTU21D;9804;52.350;6.684;2023-02-03T07:43:22;11.74;-6.00
19340;HTU21D;9804;52.350;6.684;2023-02-03T07:45:47;11.86;-6.00
19340;HTU21D;9804;52.350;6.684;2023-02-03T07:48:13;11.74;-6.00
19340;HTU21D;9804;52.350;6.684;2023-02-03T07:50:38;11.87;-6.00
19340;HTU21D;9804;52.350;6.684;2023-02-03T07:53:05;11.70;-6.00
19340;HTU21D;9804;52.350;6.684;2023-02-03T07:55:33;11.85;-6.00
19340;HTU21D;9804;52.350;6.684;2023-02-03T07:57:58;11.92;-6.00
19340;HTU21D;9804;52.350;6.684;2023-02-03T08:00:24;11.91;-6.00
19340;HTU21D;9804;52.350;6.684;2023-02-03T08:02:50;11.85;-6.00
19340;HTU21D;9804;52.350;6.684;2023-02-03T08:05:16;12.06;-6.00
19340;HTU21D;9804;52.350;6.684;2023-02-03T08:07:42;11.97;-6.00
19340;HTU21D;9804;52.350;6.684;2023-02-03T08:10:10;11.93;-6.00
19340;HTU21D;9804;52.350;6.684;2023-02-03T08:12:36;11.94;-6.00
19340;HTU21D;9804;52.350;6.684;2023-02-03T08:15:03;11.94;-6.00
19340;HTU21D;9804;52.350;6.684;2023-02-03T08:17:28;11.90;-6.00
19340;HTU21D;9804;52.350;6.684;2023-02-03T08:19:54;11.84;-6.00
19340;HTU21D;9804;52.350;6.684;2023-02-03T08:22:19;12.04;-6.00
19340;HTU21D;9804;52.350;6.684;2023-02-03T08:24:45;11.83;-6.00
19340;HTU21D;9804;52.350;6.684;2023-02-03T08:27:12;12.07;-6.00
19340;HTU21D;9804;52.350;6.684;2023-02-03T08:29:38;11.92;-6.00
19340;HTU21D;9804;52.350;6.684;2023-02-03T08:32:03;12.10;-6.00
19340;HTU21D;9804;52.350;6.684;2023-02-03T08:34:29;11.92;-6.00
19340;HTU21D;9804;52.350;6.684;2023-02-03T08:36:54;12.16;-6.00
19340;HTU21D;9804;52.350;6.684;2023-02-03T08:39:20;12.01;-6.00
19340;HTU21D;9804;52.350;6.684;2023-02-03T08:41:45;12.04;-6.00
19340;HTU21D;9804;52.350;6.684;2023-02-03T08:44:11;11.98;-6.00
19340;HTU21D;9804;52.350;6.684;2023-02-03T08:46:36;12.02;-6.00
19340;HTU21D;9804;52.350;6.684;2023-02-03T08:49:07;12.26;-6.00
19340;HTU21D;9804;52.350;6.684;2023-02-03T08:51:33;11.84;-6.00
19340;HTU21D;9804;52.350;6.684;2023-02-03T08:53:58;12.08;-6.00
19340;HTU21D;9804;52.350;6.684;2023-02-03T08:56:24;12.19;-6.00
19340;HTU21D;9804;52.350;6.684;2023-02-03T08:58:50;12.03;-6.00
19340;HTU21D;9804;52.350;6.684;2023-02-03T09:01:16;11.98;-6.00
19340;HTU21D;9804;52.350;6.684;2023-02-03T09:03:41;12.25;-6.00
19340;HTU21D;9804;52.350;6.684;2023-02-03T09:06:07;12.07;-6.00
19340;HTU21D;9804;52.350;6.684;2023-02-03T09:08:32;11.98;-6.00
19340;HTU21D;9804;52.350;6.684;2023-02-03T09:10:58;12.14;-6.00
19340;HTU21D;9804;52.350;6.684;2023-02-03T09:13:23;12.18;-6.00
19340;HTU21D;9804;52.350;6.684;2023-02-03T09:15:48;12.21;-6.00
19340;HTU21D;9804;52.350;6.684;2023-02-03T09:18:14;12.18;-6.00
19340;HTU21D;9804;52.350;6.684;2023-02-03T09:20:39;12.11;-6.00
19340;HTU21D;9804;52.350;6.684;2023-02-03T09:23:05;12.08;-6.00
19340;HTU21D;9804;52.350;6.684;2023-02-03T09:25:31;12.14;-6.00
19340;HTU21D;9804;52.350;6.684;2023-02-03T09:27:56;12.22;-6.00
19340;HTU21D;9804;52.350;6.684;2023-02-03T09:30:22;12.34;-6.00
19340;HTU21D;9804;52.350;6.684;2023-02-03T09:32:51;12.23;-6.00
19340;HTU21D;9804;52.350;6.684;2023-02-03T09:35:19;12.08;-6.00
19340;HTU21D;9804;52.350;6.684;2023-02-03T09:37:45;12.22;-6.00
19340;HTU21D;9804;52.350;6.684;2023-02-03T09:40:32;12.33;-6.00
19340;HTU21D;9804;52.350;6.684;2023-02-03T09:43:12;12.26;-6.00
19340;HTU21D;9804;52.350;6.684;2023-02-03T09:45:42;12.20;-6.00
19340;HTU21D;9804;52.350;6.684;2023-02-03T09:48:21;12.43;-6.00
19340;HTU21D;9804;52.350;6.684;2023-02-03T09:50:48;12.38;-6.00
19340;HTU21D;9804;52.350;6.684;2023-02-03T09:53:34;12.13;-6.00
19340;HTU21D;9804;52.350;6.684;2023-02-03T09:56:01;12.43;-6.00
19340;HTU21D;9804;52.350;6.684;2023-02-03T09:58:32;12.15;-6.00
19340;HTU21D;9804;52.350;6.684;2023-02-03T10:00:59;12.44;-6.00
19340;HTU21D;9804;52.350;6.684;2023-02-03T10:03:51;12.28;-6.00
19340;HTU21D;9804;52.350;6.684;2023-02-03T10:06:30;12.38;-6.00
19340;HTU21D;9804;52.350;6.684;2023-02-03T10:19:48;12.36;-6.00
19340;HTU21D;9804;52.350;6.684;2023-02-03T10:22:21;12.44;-6.00
19340;HTU21D;9804;52.350;6.684;2023-02-03T10:24:55;12.11;-6.00
19340;HTU21D;9804;52.350;6.684;2023-02-03T10:27:23;12.30;-6.00
19340;HTU21D;9804;52.350;6.684;2023-02-03T10:30:26;12.22;-6.00
19340;HTU21D;9804;52.350;6.684;2023-02-03T10:32:54;12.00;-6.00
19340;HTU21D;9804;52.350;6.684;2023-02-03T10:35:27;11.88;-6.00
19340;HTU21D;9804;52.350;6.684;2023-02-03T10:37:56;11.89;-6.00
19340;HTU21D;9804;52.350;6.684;2023-02-03T10:40:23;11.96;-6.00
19340;HTU21D;9804;52.350;6.684;2023-02-03T10:42:50;11.88;-6.00
19340;HTU21D;9804;52.350;6.684;2023-02-03T10:45:38;12.06;-6.00
19340;HTU21D;9804;52.350;6.684;2023-02-03T10:48:05;12.02;-6.00
19340;HTU21D;9804;52.350;6.684;2023-02-03T10:50:35;11.61;-6.00
19340;HTU21D;9804;52.350;6.684;2023-02-03T10:53:23;11.85;-6.00
19340;HTU21D;9804;52.350;6.684;2023-02-03T10:55:58;11.64;-6.00
19340;HTU21D;9804;52.350;6.684;2023-02-03T10:58:26;11.84;-6.00
19340;HTU21D;9804;52.350;6.684;2023-02-03T11:01:12;11.79;-6.00
19340;HTU21D;9804;52.350;6.684;2023-02-03T11:03:53;11.85;-6.00
19340;HTU21D;9804;52.350;6.684;2023-02-03T11:06:19;11.88;-6.00
19340;HTU21D;9804;52.350;6.684;2023-02-03T11:08:47;11.70;-6.00
19340;HTU21D;9804;52.350;6.684;2023-02-03T11:11:19;11.67;-6.00
19340;HTU21D;9804;52.350;6.684;2023-02-03T11:13:45;11.75;-6.00
19340;HTU21D;9804;52.350;6.684;2023-02-03T11:16:14;11.74;-6.00
19340;HTU21D;9804;52.350;6.684;2023-02-03T11:18:42;11.60;-6.00
19340;HTU21D;9804;52.350;6.684;2023-02-03T11:21:11;11.69;-6.00
19340;HTU21D;9804;52.350;6.684;2023-02-03T11:23:43;11.91;-6.00
19340;HTU21D;9804;52.350;6.684;2023-02-03T11:26:11;11.69;-6.00
19340;HTU21D;9804;52.350;6.684;2023-02-03T11:28:42;11.76;-6.00
19340;HTU21D;9804;52.350;6.684;2023-02-03T11:31:16;11.93;-6.00
19340;HTU21D;9804;52.350;6.684;2023-02-03T11:33:46;11.91;-6.00
19340;HTU21D;9804;52.350;6.684;2023-02-03T11:36:12;11.86;-6.00
19340;HTU21D;9804;52.350;6.684;2023-02-03T11:38:38;12.06;-6.00
19340;HTU21D;9804;52.350;6.684;2023-02-03T11:41:17;11.90;-6.00
19340;HTU21D;9804;52.350;6.684;2023-02-03T11:43:43;11.90;-6.00
19340;HTU21D;9804;52.350;6.684;2023-02-03T11:46:09;12.13;-6.00
19340;HTU21D;9804;52.350;6.684;2023-02-03T11:48:36;11.90;-6.00
19340;HTU21D;9804;52.350;6.684;2023-02-03T11:51:31;12.11;-6.00
19340;HTU21D;9804;52.350;6.684;2023-02-03T12:00:19;11.98;-6.00
19340;HTU21D;9804;52.350;6.684;2023-02-03T12:08:33;12.06;-6.00
19340;HTU21D;9804;52.350;6.684;2023-02-03T12:11:07;12.04;-6.00
19340;HTU21D;9804;52.350;6.684;2023-02-03T12:20:00;12.31;-6.00
19340;HTU21D;9804;52.350;6.684;2023-02-03T12:22:35;12.42;-6.00
19340;HTU21D;9804;52.350;6.684;2023-02-03T12:25:35;12.17;-6.00
19340;HTU21D;9804;52.350;6.684;2023-02-03T12:28:46;12.31;-6.00
19340;HTU21D;9804;52.350;6.684;2023-02-03T12:30:55;12.12;-6.00
19340;HTU21D;9804;52.350;6.684;2023-02-03T12:33:47;12.16;-6.00
19340;HTU21D;9804;52.350;6.684;2023-02-03T12:36:17;11.96;-6.00
19340;HTU21D;9804;52.350;6.684;2023-02-03T12:38:56;12.11;-6.00
19340;HTU21D;9804;52.350;6.684;2023-02-03T12:41:27;12.03;-6.00
19340;HTU21D;9804;52.350;6.684;2023-02-03T12:43:59;12.23;-6.00
19340;HTU21D;9804;52.350;6.684;2023-02-03T12:49:41;11.91;-6.00
19340;HTU21D;9804;52.350;6.684;2023-02-03T12:52:17;11.89;-6.00
19340;HTU21D;9804;52.350;6.684;2023-02-03T12:54:51;12.01;-6.00
19340;HTU21D;9804;52.350;6.684;2023-02-03T12:57:39;11.90;-6.00
19340;HTU21D;9804;52.350;6.684;2023-02-03T13:02:55;11.89;-6.00
19340;HTU21D;9804;52.350;6.684;2023-02-03T13:05:34;11.64;-6.00
19340;HTU21D;9804;52.350;6.684;2023-02-03T13:08:11;11.63;-6.00
19340;HTU21D;9804;52.350;6.684;2023-02-03T13:13:36;11.57;-6.00
19340;HTU21D;9804;52.350;6.684;2023-02-03T13:16:06;11.71;-6.00
19340;HTU21D;9804;52.350;6.684;2023-02-03T13:18:40;11.69;-6.00
19340;HTU21D;9804;52.350;6.684;2023-02-03T13:21:10;11.54;-6.00
19340;HTU21D;9804;52.350;6.684;2023-02-03T13:23:40;11.76;-6.00
19340;HTU21D;9804;52.350;6.684;2023-02-03T13:37:28;11.82;-6.00
19340;HTU21D;9804;52.350;6.684;2023-02-03T13:42:36;11.94;-6.00
19340;HTU21D;9804;52.350;6.684;2023-02-03T13:45:25;11.61;-6.00
19340;HTU21D;9804;52.350;6.684;2023-02-03T13:47:57;11.69;-6.00
19340;HTU21D;9804;52.350;6.684;2023-02-03T13:50:27;11.60;-6.00
19340;HTU21D;9804;52.350;6.684;2023-02-03T13:53:02;11.55;-6.00
19340;HTU21D;9804;52.350;6.684;2023-02-03T13:55:37;11.75;-6.00
19340;HTU21D;9804;52.350;6.684;2023-02-03T13:58:05;11.70;-6.00
19340;HTU21D;9804;52.350;6.684;2023-02-03T14:05:55;11.61;-6.00
19340;HTU21D;9804;52.350;6.684;2023-02-03T14:16:41;11.67;-6.00
19340;HTU21D;9804;52.350;6.684;2023-02-03T14:22:07;11.66;-6.00
19340;HTU21D;9804;52.350;6.684;2023-02-03T14:24:43;11.47;-6.00
19340;HTU21D;9804;52.350;6.684;2023-02-03T14:27:26;11.70;-6.00
19340;HTU21D;9804;52.350;6.684;2023-02-03T14:30:05;11.57;-6.00
19340;HTU21D;9804;52.350;6.684;2023-02-03T14:32:51;11.53;-6.00
19340;HTU21D;9804;52.350;6.684;2023-02-03T14:35:30;11.49;-6.00
19340;HTU21D;9804;52.350;6.684;2023-02-03T14:38:00;11.61;-6.00
19340;HTU21D;9804;52.350;6.684;2023-02-03T14:43:03;11.49;-6.00
19340;HTU21D;9804;52.350;6.684;2023-02-03T14:51:29;11.38;-6.00
19340;HTU21D;9804;52.350;6.684;2023-02-03T14:54:45;11.41;-6.00
19340;HTU21D;9804;52.350;6.684;2023-02-03T15:02:29;11.48;-6.00
19340;HTU21D;9804;52.350;6.684;2023-02-03T15:07:41;11.58;-6.00
19340;HTU21D;9804;52.350;6.684;2023-02-03T15:10:23;11.24;-6.00
19340;HTU21D;9804;52.350;6.684;2023-02-03T15:12:51;11.23;-6.00
19340;HTU21D;9804;52.350;6.684;2023-02-03T15:15:27;11.33;-6.00
19340;HTU21D;9804;52.350;6.684;2023-02-03T15:17:58;11.44;-6.00
19340;HTU21D;9804;52.350;6.684;2023-02-03T15:20:38;11.85;-6.00
19340;HTU21D;9804;52.350;6.684;2023-02-03T15:23:24;11.55;-6.00
19340;HTU21D;9804;52.350;6.684;2023-02-03T15:26:00;11.38;-6.00
19340;HTU21D;9804;52.350;6.684;2023-02-03T15:28:27;11.34;-6.00
19340;HTU21D;9804;52.350;6.684;2023-02-03T15:31:13;11.31;-6.00
19340;HTU21D;9804;52.350;6.684;2023-02-03T15:33:41;11.43;-6.00
19340;HTU21D;9804;52.350;6.684;2023-02-03T15:36:18;11.44;-6.00
19340;HTU21D;9804;52.350;6.684;2023-02-03T15:38:48;11.29;-6.00
19340;HTU21D;9804;52.350;6.684;2023-02-03T15:41:21;11.34;-6.00
19340;HTU21D;9804;52.350;6.684;2023-02-03T15:43:52;11.26;-6.00
19340;HTU21D;9804;52.350;6.684;2023-02-03T15:46:29;11.23;-6.00
19340;HTU21D;9804;52.350;6.684;2023-02-03T15:49:04;11.40;-6.00
19340;HTU21D;9804;52.350;6.684;2023-02-03T15:51:43;11.39;-6.00
19340;HTU21D;9804;52.350;6.684;2023-02-03T15:54:20;11.33;-6.00
19340;HTU21D;9804;52.350;6.684;2023-02-03T15:56:57;11.23;-6.00
19340;HTU21D;9804;52.350;6.684;2023-02-03T15:59:33;11.27;-6.00
19340;HTU21D;9804;52.350;6.684;2023-02-03T16:02:04;11.44;-6.00
19340;HTU21D;9804;52.350;6.684;2023-02-03T16:04:30;11.10;-6.00
19340;HTU21D;9804;52.350;6.684;2023-02-03T16:06:56;10.96;-6.00
19340;HTU21D;9804;52.350;6.684;2023-02-03T16:12:26;11.16;-6.00
19340;HTU21D;9804;52.350;6.684;2023-02-03T16:14:52;10.84;-6.00
19340;HTU21D;9804;52.350;6.684;2023-02-03T16:17:54;11.10;-6.00
19340;HTU21D;9804;52.350;6.684;2023-02-03T16:20:23;11.09;-6.00
19340;HTU21D;9804;52.350;6.684;2023-02-03T16:23:22;10.83;-6.00
19340;HTU21D;9804;52.350;6.684;2023-02-03T16:26:17;10.82;-6.00
19340;HTU21D;9804;52.350;6.684;2023-02-03T16:28:44;10.83;-6.00
19340;HTU21D;9804;52.350;6.684;2023-02-03T16:31:42;11.07;-6.00
19340;HTU21D;9804;52.350;6.684;2023-02-03T16:34:27;10.87;-6.00
19340;HTU21D;9804;52.350;6.684;2023-02-03T16:37:30;10.69;-6.00
19340;HTU21D;9804;52.350;6.684;2023-02-03T16:40:22;10.79;-6.00
19340;HTU21D;9804;52.350;6.684;2023-02-03T16:43:14;10.69;-6.00
19340;HTU21D;9804;52.350;6.684;2023-02-03T16:45:59;10.73;-6.00
19340;HTU21D;9804;52.350;6.684;2023-02-03T16:48:43;10.65;-6.00
19340;HTU21D;9804;52.350;6.684;2023-02-03T16:51:33;10.66;-6.00
19340;HTU21D;9804;52.350;6.684;2023-02-03T16:53:58;10.77;-6.00
19340;HTU21D;9804;52.350;6.684;2023-02-03T16:56:24;10.59;-6.00
19340;HTU21D;9804;52.350;6.684;2023-02-03T16:58:49;10.37;-6.00
19340;HTU21D;9804;52.350;6.684;2023-02-03T17:01:14;10.72;-6.00
19340;HTU21D;9804;52.350;6.684;2023-02-03T17:03:40;10.71;-6.00
19340;HTU21D;9804;52.350;6.684;2023-02-03T17:06:09;10.46;-6.00
19340;HTU21D;9804;52.350;6.684;2023-02-03T17:08:35;10.34;-6.00
19340;HTU21D;9804;52.350;6.684;2023-02-03T17:11:07;10.48;-6.00
19340;HTU21D;9804;52.350;6.684;2023-02-03T17:13:33;10.35;-6.00
19340;HTU21D;9804;52.350;6.684;2023-02-03T17:16:05;10.68;-6.00
19340;HTU21D;9804;52.350;6.684;2023-02-03T17:18:32;10.51;-6.00
19340;HTU21D;9804;52.350;6.684;2023-02-03T17:21:06;10.35;-6.00
19340;HTU21D;9804;52.350;6.684;2023-02-03T17:23:33;10.53;-6.00
19340;HTU21D;9804;52.350;6.684;2023-02-03T17:25:58;10.43;-6.00
19340;HTU21D;9804;52.350;6.684;2023-02-03T17:28:24;10.46;-6.00
19340;HTU21D;9804;52.350;6.684;2023-02-03T17:31:00;10.60;-6.00
19340;HTU21D;9804;52.350;6.684;2023-02-03T17:33:27;10.39;-6.00
19340;HTU21D;9804;52.350;6.684;2023-02-03T17:36:01;10.54;-6.00
19340;HTU21D;9804;52.350;6.684;2023-02-03T17:38:27;10.28;-6.00
19340;HTU21D;9804;52.350;6.684;2023-02-03T17:40:53;10.41;-6.00
19340;HTU21D;9804;52.350;6.684;2023-02-03T17:43:18;10.50;-6.00
19340;HTU21D;9804;52.350;6.684;2023-02-03T17:45:44;10.41;-6.00
19340;HTU21D;9804;52.350;6.684;2023-02-03T17:48:09;10.12;-6.00